x

South Huron - 43nm East Of Oscoda, Mi (45008) Wave Buoy

5:50am - Sun 31st Aug 2014 All times are CDT. -5 hours from GMT.

  • Sig Wave height 2.3ft
  • Swell Direction
  • Peak Period 4s
  • Average Period 4s
  • Wind
    16mph, 18mph gusts
  • Sea Temp 65°f
  • Air Temp 67°f
  • Sea Pressure 1010.8mb
  • South Huron - 43nm East Of Oscoda, Mi
  • South Huron - 43nm East Of Oscoda, Mi

More Historic Weather Station data

Upgrade to MSW Pro to gain access to the past 30 days of data for over 8000 Wavebouys and Weather Stations around the globe.

Join Pro

Comparision Forecast

View Surf forecast
   
Sun 08/31 5:50am 2.5ft 4s 4s 16 18 mph 1010.8mb 65f 67f
4:50am 2.5ft 4s 3s 16 18 mph 1010mb 65f 68f
3:50am 1.6ft 4s 3s 18 20 mph 1009.7mb 66f 69f
2:50am 2ft 5s 3s 13 18 mph 1009.8mb 66f 69f
1:50am 2ft 4s 3s 11 13 mph 1009.8mb 66f 69f
12:50am 2.5ft 5s 4s 11 13 mph 1010mb 66f 69f
Sat 08/30 11:50pm 2.5ft 4s 4s 16 18 mph 1009.5mb 66f 69f
10:50pm 2.5ft 4s 4s 16 20 mph 1009.3mb 66f 68f
9:50pm 2.5ft 4s 4s 18 22 mph 1008.9mb 66f 70f
8:50pm 2.5ft 4s 4s 20 25 mph 1008.8mb 66f 70f
7:50pm 2ft 4s 3s 20 25 mph 1008.5mb 66f 70f
6:50pm 2ft 4s 4s 11 13 mph 1008.5mb 66f 69f
5:50pm 2ft 4s 4s 16 18 mph 1008.5mb 66f 70f
4:50pm 2.5ft 5s 4s 16 18 mph 1008.3mb 66f 70f
3:50pm 2.5ft 5s 4s 16 18 mph 1008.6mb 66f 70f
2:50pm 2.5ft 5s 4s 13 16 mph 1009.3mb 66f 69f
1:50pm 2.5ft 5s 4s 13 18 mph 1010.3mb 65f 69f
12:50pm 3.5ft 5s 4s 11 13 mph 1010.8mb 65f 69f
11:50am 3.5ft 5s 4s 18 20 mph 1011mb 65f 69f
10:50am 3.5ft 5s 4s 16 18 mph 1011.1mb 65f 68f
9:50am 4ft 5s 4s 18 22 mph 1011.1mb 65f 68f
8:50am 4ft 5s 4s 20 22 mph 1011.4mb 65f 68f
7:50am 4ft 6s 4s 20 25 mph 1011.7mb 65f 68f
6:50am 4.5ft 5s 4s 20 22 mph 1012mb 65f 68f
5:50am 3.5ft 5s 4s 22 25 mph 1012mb 65f 68f
4:50am 3.5ft 5s 4s 18 22 mph 1012.4mb 64f 67f
3:50am 4ft 5s 4s 20 22 mph 1012.7mb 64f 66f
2:50am 4.5ft 5s 4s 20 22 mph 1013.3mb 63f 66f
1:50am 4.5ft 5s 4s 20 22 mph 1014.3mb 63f 65f
12:50am 4.5ft 5s 4s 22 25 mph 1014.3mb 63f 66f
Fri 08/29 11:50pm 4ft 5s 4s 20 25 mph 1014.8mb 63f 66f
10:50pm 3.5ft 5s 4s 20 25 mph 1014.7mb 63f 66f
9:50pm 3.5ft 4s 4s 20 22 mph 1015.4mb 63f 67f
8:50pm 3ft 5s 4s 20 25 mph 1015mb 63f 67f
7:50pm 3ft 4s 4s 20 22 mph 1015.3mb 63f 67f
6:50pm 2.5ft 4s 4s 20 22 mph 1015.3mb 63f 67f
5:50pm 2.5ft 4s 4s 18 20 mph 1015.8mb 63f 66f
4:50pm 2.5ft 5s 4s 16 18 mph 1016.4mb 63f 66f
3:50pm 2.5ft 5s 4s 13 16 mph 1017.2mb 63f 66f
2:50pm 2.5ft 4s 4s 13
mph
1017.9mb 63f 65f
1:50pm 2.5ft 5s 4s 13 16 mph 1018.6mb 63f 65f
12:50pm 2ft 4s 4s 13 16 mph 1019.2mb 63f 65f
11:50am 2ft 4s 3s 16 18 mph 1019.3mb 64f 65f
10:50am 2ft 4s 3s 16 18 mph 1019.4mb 64f 64f
9:50am 1.6ft 3s 3s 16 18 mph 1019.7mb 65f 64f
8:50am 1.3ft 3s 3s 13 16 mph 1019.9mb 65f 64f
7:50am 1.3ft 3s 3s 13 16 mph 1020.4mb 65f 64f
6:50am 1ft 3s 3s 13 16 mph 1020.2mb 65f 64f
5:50am 0.7ft  -  2s 11 16 mph 1020mb 65f 64f
4:50am 0.3ft  -  2s 11
mph
1019.7mb 65f 64f
3:50am 0.3ft  -  3s 9 11 mph 1019.6mb 65f 64f
2:50am 0.3ft  -  3s 7 9 mph 1019.9mb 65f 64f
1:50am 0.3ft  -  3s 9
mph
1020.2mb 65f 63f
12:50am 0.3ft  -  3s 7 9 mph 1020.6mb 65f 63f
Thu 08/28 11:50pm 0.3ft  -  3s 4 7 mph 1020.3mb 65f 63f
10:50pm 0.3ft  -  3s 4 7 mph 1020.4mb 65f 62f
8:50pm 0.7ft  -  3s 2
mph
1020.7mb 66f 62f
7:50pm 0.7ft  -  3s 4
mph
1020.1mb 66f 62f
6:50pm 0.7ft  -  3s 2 4 mph 1020.1mb 66f 61f
5:50pm 1ft 4s 3s 2 4 mph 1020.2mb 66f 61f
4:50pm 1ft 3s 3s 4
mph
1020.4mb 66f 61f
3:50pm 1ft 4s 3s 7
mph
1020.6mb 65f 60f
2:50pm 1ft 4s 3s 7 9 mph 1020.6mb 65f 60f
1:50pm 1.3ft 4s 3s 7 9 mph 1021.2mb 65f 59f
12:50pm 1.3ft 4s 3s 7 9 mph 1021.4mb 65f 59f
11:50am 1.6ft 4s 3s 7 9 mph 1021.3mb 64f 59f
10:50am 1.6ft 4s 3s 11 13 mph 1021.2mb 64f 59f
9:50am 2ft 5s 4s 13 16 mph 1021.2mb 64f 59f
8:50am 2ft 5s 4s 13 16 mph 1021.2mb 64f 59f
7:50am 2.5ft 4s 4s 11 13 mph 1020.9mb 63f 59f
6:50am 2.5ft 6s 4s 13 16 mph 1020.3mb 63f 59f
5:50am 3ft 6s 4s 13 16 mph 1020mb 63f 60f
4:50am 3ft 5s 4s 16
mph
1019.6mb 63f 59f
3:50am 3ft 5s 4s 16 18 mph 1019.2mb 63f 59f
2:50am 3ft 5s 4s 16 18 mph 1019.1mb 64f 59f
1:50am 3ft 5s 4s 16 18 mph 1019.3mb 64f 60f
12:50am 3ft 5s 4s 16 18 mph 1019.6mb 64f 60f
Wed 08/27 11:50pm 4ft 6s 4s 16 20 mph 1019.4mb 64f 60f
10:50pm 3.5ft 5s 4s 18 22 mph 1019.1mb 64f 61f
9:50pm 3ft 6s 4s 18 20 mph 1019.1mb 64f 61f
8:50pm 2ft 5s 4s 16 20 mph 1019.3mb 63f 62f
7:50pm 2ft 5s 4s 11
mph
1019.3mb 63f 62f
6:50pm 1.6ft 4s 3s 11 13 mph 1019.2mb 63f 62f
5:50pm 1.6ft 5s 3s 9 13 mph 1019.4mb 63f 62f
4:50pm 1.6ft 4s 3s 13 16 mph 1019.2mb 63f 62f
3:50pm 1.6ft 4s 4s 9
mph
1019.2mb 64f 63f
2:50pm 2.5ft 4s 4s 13 16 mph 1019.1mb 64f 63f
1:50pm 2ft 4s 3s 18 20 mph 1019.2mb 64f 63f
12:50pm 2ft 5s 3s 13 16 mph 1019.5mb 64f 62f
11:50am 2ft 4s 3s 16 18 mph 1019.7mb 64f 62f